createdAt,value
2022-09-02T00:00:28.255Z,16.52
2022-09-02T00:01:29.467Z,16.52
2022-09-02T00:02:30.304Z,16.54
2022-09-02T00:03:28.400Z,16.54
2022-09-02T00:04:28.240Z,16.52
2022-09-02T00:05:28.203Z,16.52
2022-09-02T00:06:28.572Z,16.51
2022-09-02T00:07:29.032Z,16.47
2022-09-02T00:08:28.083Z,16.47
2022-09-02T00:09:31.919Z,16.45
2022-09-02T00:10:29.007Z,16.45
2022-09-02T00:11:28.809Z,16.47
2022-09-02T00:12:28.554Z,16.45
2022-09-02T00:13:29.892Z,16.47
2022-09-02T00:14:30.070Z,16.47
2022-09-02T00:15:27.932Z,16.42
2022-09-02T00:16:28.215Z,16.44
2022-09-02T00:17:28.081Z,16.42
2022-09-02T00:18:27.994Z,16.42
2022-09-02T00:19:28.501Z,16.44
2022-09-02T00:20:28.261Z,16.42
2022-09-02T00:21:28.673Z,16.41
2022-09-02T00:22:29.279Z,16.37
2022-09-02T00:23:30.541Z,16.37
2022-09-02T00:24:28.225Z,16.37
2022-09-02T00:25:28.032Z,16.36
2022-09-02T00:26:28.862Z,16.34
2022-09-02T00:27:28.138Z,16.36
2022-09-02T00:28:29.447Z,16.32
2022-09-02T00:29:27.713Z,16.32
2022-09-02T00:30:28.387Z,16.30
2022-09-02T00:31:27.921Z,16.30
2022-09-02T00:32:29.210Z,16.30
2022-09-02T00:33:27.769Z,16.33
2022-09-02T00:34:28.672Z,16.30
2022-09-02T00:35:27.651Z,16.29
2022-09-02T00:36:27.763Z,16.29
2022-09-02T00:37:27.796Z,16.29
2022-09-02T00:38:27.520Z,16.30
2022-09-02T00:39:27.957Z,16.29
2022-09-02T00:40:27.546Z,16.29
2022-09-02T00:41:27.495Z,16.26
2022-09-02T00:42:27.647Z,16.27
2022-09-02T00:43:27.642Z,16.26
2022-09-02T00:44:27.606Z,16.25
2022-09-02T00:45:27.399Z,16.25
2022-09-02T00:46:27.847Z,16.25
2022-09-02T00:47:27.348Z,16.22
2022-09-02T00:48:27.503Z,16.22
2022-09-02T00:49:28.701Z,16.18
2022-09-02T00:50:28.255Z,16.22
2022-09-02T00:51:29.092Z,16.17
2022-09-02T00:52:27.656Z,16.17
2022-09-02T00:53:28.188Z,16.17
2022-09-02T00:54:27.459Z,16.17
2022-09-02T00:55:27.942Z,16.16
2022-09-02T00:56:27.488Z,16.18
2022-09-02T00:57:27.296Z,16.18
2022-09-02T00:58:27.411Z,16.17
2022-09-02T00:59:27.248Z,16.14
2022-09-02T01:00:31.309Z,16.13
2022-09-02T01:02:49.105Z,16.14
2022-09-02T01:03:42.431Z,16.13
2022-09-02T01:04:42.610Z,16.13
2022-09-02T01:05:43.924Z,16.13
2022-09-02T01:06:42.239Z,16.11
2022-09-02T01:07:42.281Z,16.10
2022-09-02T01:08:42.686Z,16.08
2022-09-02T01:09:41.969Z,16.04
2022-09-02T01:10:42.064Z,16.03
2022-09-02T01:11:42.034Z,16.04
2022-09-02T01:12:41.781Z,16.04
2022-09-02T01:13:41.666Z,16.04
2022-09-02T01:14:41.796Z,16.04
2022-09-02T01:15:41.991Z,16.06
2022-09-02T01:16:42.338Z,16.06
2022-09-02T01:17:41.650Z,16.06
2022-09-02T01:18:43.795Z,16.07
2022-09-02T01:19:42.092Z,16.06
2022-09-02T01:20:41.996Z,16.04
2022-09-02T01:21:41.545Z,16.06
2022-09-02T01:22:41.869Z,16.07
2022-09-02T01:23:41.779Z,16.04
2022-09-02T01:24:41.984Z,16.06
2022-09-02T01:25:42.238Z,16.04
2022-09-02T01:26:41.945Z,16.04
2022-09-02T01:27:41.969Z,16.01
2022-09-02T01:28:41.883Z,15.98
2022-09-02T01:29:41.778Z,15.98
2022-09-02T01:30:41.603Z,15.95
2022-09-02T01:31:41.979Z,15.95
2022-09-02T01:32:41.689Z,15.95
2022-09-02T01:33:41.583Z,15.96
2022-09-02T01:34:41.404Z,15.96
2022-09-02T01:35:41.527Z,15.96
2022-09-02T01:36:41.398Z,15.95
2022-09-02T01:37:41.581Z,15.95
2022-09-02T01:38:45.871Z,15.95
2022-09-02T01:39:41.597Z,15.93
2022-09-02T01:42:12.833Z,15.93
2022-09-02T01:43:24.291Z,15.92
2022-09-02T01:44:12.012Z,15.93
2022-09-02T01:45:12.725Z,15.92
2022-09-02T01:46:11.860Z,15.93
2022-09-02T01:47:12.050Z,15.93
2022-09-02T01:48:12.040Z,15.92
2022-09-02T01:49:11.748Z,15.91
2022-09-02T01:50:11.558Z,15.89
2022-09-02T01:51:12.995Z,15.89
2022-09-02T01:52:11.810Z,15.89
2022-09-02T01:53:13.771Z,15.89
2022-09-02T01:54:11.509Z,15.91
2022-09-02T01:55:11.735Z,15.91
2022-09-02T01:56:11.605Z,15.88
2022-09-02T01:57:11.649Z,15.85
2022-09-02T01:58:11.926Z,15.85
2022-09-02T01:59:12.188Z,15.85
2022-09-02T02:00:11.523Z,15.86
2022-09-02T02:01:12.125Z,15.86
2022-09-02T02:02:12.854Z,15.86
2022-09-02T02:03:11.575Z,15.88
2022-09-02T02:04:13.584Z,15.88
2022-09-02T02:05:11.408Z,15.88
2022-09-02T02:06:11.618Z,15.88
2022-09-02T02:07:11.400Z,15.86
2022-09-02T02:08:12.151Z,15.81
2022-09-02T02:09:11.794Z,15.80
2022-09-02T02:10:11.243Z,15.78
2022-09-02T02:11:11.551Z,15.78
2022-09-02T02:12:11.500Z,15.80
2022-09-02T02:13:19.862Z,15.81
2022-09-02T02:14:11.419Z,15.80
2022-09-02T02:15:11.519Z,15.78
2022-09-02T02:16:11.381Z,15.78
2022-09-02T02:17:11.495Z,15.78
2022-09-02T02:18:11.372Z,15.80
2022-09-02T02:19:11.369Z,15.84
2022-09-02T02:20:11.425Z,15.84
2022-09-02T02:21:11.355Z,15.84
2022-09-02T02:22:11.482Z,15.81
2022-09-02T02:23:11.188Z,15.84
2022-09-02T02:24:11.243Z,15.84
2022-09-02T02:25:11.181Z,15.84
2022-09-02T02:26:11.210Z,15.80
2022-09-02T02:27:11.395Z,15.78
2022-09-02T02:28:11.388Z,15.77
2022-09-02T02:29:11.656Z,15.78
2022-09-02T02:30:11.410Z,15.77
2022-09-02T02:31:11.239Z,15.77
2022-09-02T02:32:10.983Z,15.76
2022-09-02T02:33:11.154Z,15.77
2022-09-02T02:34:11.515Z,15.78
2022-09-02T02:35:11.060Z,15.78
2022-09-02T02:36:10.944Z,15.80
2022-09-02T02:37:14.507Z,15.78
2022-09-02T02:38:14.339Z,15.80
2022-09-02T02:39:11.504Z,15.78
2022-09-02T02:40:15.529Z,15.77
2022-09-02T02:41:10.945Z,15.76
2022-09-02T02:42:11.590Z,15.76
2022-09-02T02:43:10.900Z,15.76
2022-09-02T02:44:18.983Z,15.74
2022-09-02T02:45:14.900Z,15.74
2022-09-02T02:46:11.360Z,15.70
2022-09-02T02:47:11.504Z,15.70
2022-09-02T02:48:11.143Z,15.71
2022-09-02T02:49:15.968Z,15.70
2022-09-02T02:50:13.074Z,15.68
2022-09-02T02:51:10.927Z,15.67
2022-09-02T02:52:11.614Z,15.66
2022-09-02T02:53:13.283Z,15.64
2022-09-02T02:54:10.838Z,15.60
2022-09-02T02:55:12.469Z,15.59
2022-09-02T02:56:16.983Z,15.60
2022-09-02T02:57:11.703Z,15.59
2022-09-02T02:58:10.877Z,15.60
2022-09-02T02:59:11.839Z,15.60
2022-09-02T03:00:10.907Z,15.60
2022-09-02T03:01:11.285Z,15.60
2022-09-02T03:02:10.871Z,15.62
2022-09-02T03:03:11.020Z,15.60
2022-09-02T03:04:10.934Z,15.60
2022-09-02T03:05:10.740Z,15.62
2022-09-02T03:06:11.062Z,15.62
2022-09-02T03:07:10.851Z,15.62
2022-09-02T03:08:11.033Z,15.64
2022-09-02T03:09:11.493Z,15.62
2022-09-02T03:10:10.673Z,15.62
2022-09-02T03:11:11.006Z,15.62
2022-09-02T03:12:10.647Z,15.62
2022-09-02T03:13:10.609Z,15.62
2022-09-02T03:14:11.380Z,15.62
2022-09-02T03:15:11.501Z,15.62
2022-09-02T03:16:10.657Z,15.64
2022-09-02T03:17:10.359Z,15.66
2022-09-02T03:18:10.696Z,15.60
2022-09-02T03:19:11.450Z,15.59
2022-09-02T03:20:10.352Z,15.60
2022-09-02T03:21:10.669Z,15.60
2022-09-02T03:22:10.487Z,15.60
2022-09-02T03:23:10.470Z,15.59
2022-09-02T03:24:10.410Z,15.60
2022-09-02T03:25:10.472Z,15.60
2022-09-02T03:26:10.436Z,15.60
2022-09-02T03:27:10.768Z,15.60
2022-09-02T03:28:19.023Z,15.60
2022-09-02T03:29:10.793Z,15.62
2022-09-02T03:30:10.204Z,15.62
2022-09-02T03:31:10.352Z,15.64
2022-09-02T03:32:10.600Z,15.62
2022-09-02T03:33:10.297Z,15.64
2022-09-02T03:34:10.414Z,15.64
2022-09-02T03:35:10.291Z,15.59
2022-09-02T03:36:10.141Z,15.56
2022-09-02T03:37:10.531Z,15.56
2022-09-02T03:38:10.308Z,15.56
2022-09-02T03:39:10.462Z,15.55
2022-09-02T03:40:11.398Z,15.53
2022-09-02T03:41:10.216Z,15.55
2022-09-02T03:42:13.457Z,15.56
2022-09-02T03:43:11.292Z,15.55
2022-09-02T03:44:10.322Z,15.55
2022-09-02T03:45:10.151Z,15.55
2022-09-02T03:46:10.277Z,15.56
2022-09-02T03:47:10.104Z,15.53
2022-09-02T03:48:09.918Z,15.53
2022-09-02T03:49:10.133Z,15.53
2022-09-02T03:50:09.949Z,15.53
2022-09-02T03:51:10.032Z,15.55
2022-09-02T03:52:10.190Z,15.53
2022-09-02T03:53:16.355Z,15.52
2022-09-02T03:54:11.266Z,15.48
2022-09-02T03:55:10.159Z,15.44
2022-09-02T03:56:10.417Z,15.43
2022-09-02T03:57:09.881Z,15.43
2022-09-02T03:58:10.150Z,15.41
2022-09-02T03:59:09.877Z,15.43
2022-09-02T04:00:10.003Z,15.43
2022-09-02T04:01:09.909Z,15.44
2022-09-02T04:02:09.836Z,15.43
2022-09-02T04:03:10.091Z,15.43
2022-09-02T04:04:09.824Z,15.44
2022-09-02T04:05:10.317Z,15.44
2022-09-02T04:06:10.776Z,15.44
2022-09-02T04:07:09.711Z,15.44
2022-09-02T04:08:09.891Z,15.41
2022-09-02T04:09:09.932Z,15.41
2022-09-02T04:10:09.763Z,15.41
2022-09-02T04:11:09.858Z,15.40
2022-09-02T04:12:12.912Z,15.40
2022-09-02T04:13:10.181Z,15.38
2022-09-02T04:14:09.897Z,15.37
2022-09-02T04:15:09.703Z,15.34
2022-09-02T04:16:10.717Z,15.34
2022-09-02T04:17:09.829Z,15.31
2022-09-02T04:18:09.909Z,15.30
2022-09-02T04:19:09.839Z,15.30
2022-09-02T04:20:09.864Z,15.30
2022-09-02T04:21:10.238Z,15.28
2022-09-02T04:22:10.432Z,15.28
2022-09-02T04:23:09.834Z,15.28
2022-09-02T04:24:09.701Z,15.28
2022-09-02T04:25:09.571Z,15.28
2022-09-02T04:26:09.510Z,15.28
2022-09-02T04:27:09.483Z,15.27
2022-09-02T04:28:09.455Z,15.27
2022-09-02T04:29:09.336Z,15.22
2022-09-02T04:30:10.087Z,15.20
2022-09-02T04:31:09.526Z,15.19
2022-09-02T04:32:09.528Z,15.20
2022-09-02T04:33:09.772Z,15.19
2022-09-02T04:34:09.435Z,15.18
2022-09-02T04:35:09.293Z,15.19
2022-09-02T04:36:09.444Z,15.18
2022-09-02T04:37:09.485Z,15.15
2022-09-02T04:38:10.944Z,15.13
2022-09-02T04:39:11.159Z,15.12
2022-09-02T04:40:09.763Z,15.09
2022-09-02T04:41:09.266Z,15.09
2022-09-02T04:42:09.592Z,15.09
2022-09-02T04:43:09.248Z,15.11
2022-09-02T04:44:09.690Z,15.11
2022-09-02T04:45:09.312Z,15.12
2022-09-02T04:46:09.476Z,15.09
2022-09-02T04:47:09.216Z,15.04
2022-09-02T04:48:09.203Z,15.03
2022-09-02T04:49:09.828Z,15.01
2022-09-02T04:50:09.850Z,15.01
2022-09-02T04:51:09.251Z,15.00
2022-09-02T04:52:09.188Z,15.00
2022-09-02T04:53:09.489Z,15.00
2022-09-02T04:54:10.039Z,15.01
2022-09-02T04:55:12.003Z,15.00
2022-09-02T04:56:09.193Z,14.98
2022-09-02T04:57:09.054Z,14.98
2022-09-02T04:58:09.163Z,14.98
2022-09-02T04:59:09.565Z,14.98
2022-09-02T05:00:09.206Z,14.95
2022-09-02T05:01:09.161Z,14.95
2022-09-02T05:02:09.170Z,14.95
2022-09-02T05:03:09.023Z,14.95
2022-09-02T05:04:09.229Z,14.95
2022-09-02T05:05:09.043Z,14.94
2022-09-02T05:06:09.328Z,14.94
2022-09-02T05:07:08.944Z,14.91
2022-09-02T05:08:09.041Z,14.90
2022-09-02T05:09:08.961Z,14.86
2022-09-02T05:10:09.034Z,14.86
2022-09-02T05:11:08.957Z,14.86
2022-09-02T05:12:09.353Z,14.85
2022-09-02T05:13:08.952Z,14.85
2022-09-02T05:14:14.632Z,14.86
2022-09-02T05:15:09.445Z,14.85
2022-09-02T05:16:09.014Z,14.85
2022-09-02T05:17:09.246Z,14.85
2022-09-02T05:18:10.108Z,14.85
2022-09-02T05:19:08.926Z,14.83
2022-09-02T05:20:09.059Z,14.83
2022-09-02T05:21:12.897Z,14.82
2022-09-02T05:22:08.777Z,14.80
2022-09-02T05:23:09.106Z,14.78
2022-09-02T05:24:08.991Z,14.78
2022-09-02T05:25:09.001Z,14.79
2022-09-02T05:26:08.793Z,14.80
2022-09-02T05:27:08.686Z,14.80
2022-09-02T05:28:08.891Z,14.78
2022-09-02T05:29:08.872Z,14.78
2022-09-02T05:30:08.845Z,14.74
2022-09-02T05:31:08.962Z,14.72
2022-09-02T05:32:08.743Z,14.74
2022-09-02T05:33:08.856Z,14.74
2022-09-02T05:34:09.543Z,14.75
2022-09-02T05:35:08.721Z,14.79
2022-09-02T05:36:12.194Z,14.78
2022-09-02T05:37:08.753Z,14.80
2022-09-02T05:38:08.593Z,14.82
2022-09-02T05:39:09.344Z,14.82
2022-09-02T05:40:09.270Z,14.83
2022-09-02T05:41:08.552Z,14.80
2022-09-02T05:42:08.600Z,14.82
2022-09-02T05:43:08.520Z,14.79
2022-09-02T05:44:08.461Z,14.80
2022-09-02T05:45:08.718Z,14.79
2022-09-02T05:46:09.096Z,14.78
2022-09-02T05:47:08.888Z,14.79
2022-09-02T05:48:08.630Z,14.78
2022-09-02T05:49:08.377Z,14.79
2022-09-02T05:50:08.536Z,14.80
2022-09-02T05:51:08.356Z,14.80
2022-09-02T05:52:08.361Z,14.83
2022-09-02T05:53:13.725Z,14.83
2022-09-02T05:54:09.495Z,14.87
2022-09-02T05:55:08.336Z,14.86
2022-09-02T05:56:08.437Z,14.90
2022-09-02T05:57:08.286Z,14.90
2022-09-02T05:58:08.616Z,14.87
2022-09-02T05:59:08.617Z,14.91
2022-09-02T06:00:08.358Z,14.91
2022-09-02T06:01:10.227Z,14.93
2022-09-02T06:02:08.520Z,14.95
2022-09-02T06:03:08.245Z,14.97
2022-09-02T06:04:08.299Z,15.00
2022-09-02T06:05:09.339Z,15.00
2022-09-02T06:06:08.384Z,15.01
2022-09-02T06:07:08.322Z,15.01
2022-09-02T06:08:08.180Z,15.01
2022-09-02T06:09:08.206Z,15.03
2022-09-02T06:10:08.413Z,15.04
2022-09-02T06:11:08.305Z,15.05
2022-09-02T06:12:08.071Z,15.05
2022-09-02T06:13:09.395Z,15.09
2022-09-02T06:14:08.280Z,15.07
2022-09-02T06:15:08.640Z,15.07
2022-09-02T06:16:08.935Z,15.09
2022-09-02T06:17:08.125Z,15.11
2022-09-02T06:18:08.463Z,15.13
2022-09-02T06:19:08.692Z,15.16
2022-09-02T06:20:08.069Z,15.22
2022-09-02T06:21:09.666Z,15.27
2022-09-02T06:22:08.174Z,15.28
2022-09-02T06:23:07.997Z,15.31
2022-09-02T06:24:08.176Z,15.34
2022-09-02T06:25:08.169Z,15.35
2022-09-02T06:26:08.608Z,15.33
2022-09-02T06:27:09.196Z,15.34
2022-09-02T06:28:09.552Z,15.35
2022-09-02T06:29:07.960Z,15.37
2022-09-02T06:30:08.074Z,15.37
2022-09-02T06:31:08.094Z,15.35
2022-09-02T06:32:07.918Z,15.38
2022-09-02T06:33:08.302Z,15.38
2022-09-02T06:34:07.958Z,15.37
2022-09-02T06:35:11.099Z,15.38
2022-09-02T06:36:08.833Z,15.41
2022-09-02T06:37:08.248Z,15.43
2022-09-02T06:38:08.804Z,15.43
2022-09-02T06:39:19.095Z,15.46
2022-09-02T06:41:24.059Z,15.55
2022-09-02T06:42:20.796Z,15.55
2022-09-02T06:43:29.728Z,15.58
2022-09-02T06:44:20.898Z,15.60
2022-09-02T06:45:19.644Z,15.62
2022-09-02T06:46:19.999Z,15.67
2022-09-02T06:47:21.200Z,15.68
2022-09-02T06:48:25.266Z,15.71
2022-09-02T06:49:33.778Z,15.73
2022-09-02T06:50:31.415Z,15.77
2022-09-02T06:51:21.027Z,15.80
2022-09-02T06:52:19.244Z,15.81
2022-09-02T06:53:19.452Z,15.85
2022-09-02T06:54:19.939Z,15.86
2022-09-02T06:55:19.522Z,15.91
2022-09-02T06:56:19.490Z,15.95
2022-09-02T06:57:19.703Z,15.98
2022-09-02T06:58:19.422Z,16.03
2022-09-02T06:59:19.375Z,16.06
2022-09-02T07:00:19.697Z,16.07
2022-09-02T07:01:20.695Z,16.11
2022-09-02T07:02:19.199Z,16.14
2022-09-02T07:03:19.352Z,16.18
2022-09-02T07:04:19.909Z,16.22
2022-09-02T07:05:20.276Z,16.26
2022-09-02T07:06:20.617Z,16.29
2022-09-02T07:07:19.336Z,16.30
2022-09-02T07:08:22.795Z,16.32
2022-09-02T07:09:20.479Z,16.33
2022-09-02T07:10:21.112Z,16.33
2022-09-02T07:11:19.741Z,16.34
2022-09-02T07:12:19.271Z,16.34
2022-09-02T07:13:19.060Z,16.37
2022-09-02T07:14:20.483Z,16.41
2022-09-02T07:15:19.611Z,16.48
2022-09-02T07:17:18.852Z,16.57
2022-09-02T07:18:48.591Z,16.59
2022-09-02T07:19:20.670Z,16.60
2022-09-02T07:20:16.551Z,16.62
2022-09-02T07:21:16.890Z,16.60
2022-09-02T07:22:46.478Z,16.63
2022-09-02T07:23:21.589Z,16.63
2022-09-02T07:24:22.353Z,16.65
2022-09-02T07:25:30.209Z,16.65
2022-09-02T07:26:18.709Z,16.69
2022-09-02T07:27:16.964Z,16.70
2022-09-02T07:28:16.790Z,16.75
2022-09-02T07:29:16.971Z,16.77
2022-09-02T07:30:18.295Z,16.81
2022-09-02T07:31:18.374Z,16.85
2022-09-02T07:32:16.726Z,16.87
2022-09-02T07:33:17.042Z,16.90
2022-09-02T07:34:17.331Z,16.92
2022-09-02T07:35:17.666Z,16.96
2022-09-02T07:36:22.689Z,17.02
2022-09-02T07:37:16.465Z,17.05
2022-09-02T07:38:16.291Z,17.09
2022-09-02T07:39:19.284Z,17.10
2022-09-02T07:40:29.527Z,17.12
2022-09-02T07:43:59.417Z,17.17
2022-09-02T07:44:51.609Z,17.20
2022-09-02T07:45:52.433Z,17.21
2022-09-02T07:46:59.514Z,17.24
2022-09-02T07:47:53.633Z,17.24
2022-09-02T07:48:49.865Z,17.30
2022-09-02T07:50:52.169Z,17.36
2022-09-02T07:51:52.733Z,17.38
2022-09-02T07:52:52.698Z,17.42
2022-09-02T07:53:52.195Z,17.42
2022-09-02T07:54:50.346Z,17.45
2022-09-02T07:55:52.168Z,17.45
2022-09-02T07:56:48.940Z,17.47
2022-09-02T07:57:50.074Z,17.55
2022-09-02T07:58:51.506Z,17.65
2022-09-02T07:59:50.190Z,17.76
2022-09-02T08:00:50.722Z,17.81
2022-09-02T08:01:48.811Z,17.87
2022-09-02T08:02:50.737Z,17.92
2022-09-02T08:03:51.093Z,17.94
2022-09-02T08:04:49.528Z,17.96
2022-09-02T08:05:50.548Z,18.02
2022-09-02T08:06:49.768Z,18.04
2022-09-02T08:07:51.198Z,18.05
2022-09-02T08:08:49.457Z,18.07
2022-09-02T08:09:50.519Z,18.09
2022-09-02T08:10:56.712Z,18.09
2022-09-02T08:11:55.546Z,18.09
2022-09-02T08:12:50.931Z,18.09
2022-09-02T08:13:48.141Z,18.11
2022-09-02T08:14:48.014Z,18.10
2022-09-02T08:15:53.379Z,18.10
2022-09-02T08:16:55.179Z,18.11
2022-09-02T08:17:47.859Z,18.13
2022-09-02T08:18:47.882Z,18.13
2022-09-02T08:19:48.027Z,18.19
2022-09-02T08:20:47.907Z,18.21
2022-09-02T08:21:47.880Z,18.25
2022-09-02T08:22:59.317Z,18.31
2022-09-02T08:23:51.158Z,18.39
2022-09-02T08:24:52.281Z,18.49
2022-09-02T08:25:48.369Z,18.59
2022-09-02T08:26:52.503Z,18.65
2022-09-02T08:27:49.983Z,18.68
2022-09-02T08:28:48.960Z,18.74
2022-09-02T08:29:50.647Z,18.79
2022-09-02T08:30:48.084Z,18.90
2022-09-02T08:31:55.778Z,19.02
2022-09-02T08:32:48.526Z,19.13
2022-09-02T08:33:49.406Z,19.25
2022-09-02T08:34:54.471Z,19.30
2022-09-02T08:35:50.437Z,19.25
2022-09-02T08:36:56.200Z,19.23
2022-09-02T08:37:48.813Z,19.20
2022-09-02T08:38:48.468Z,19.21
2022-09-02T08:39:48.033Z,19.23
2022-09-02T08:40:48.841Z,19.21
2022-09-02T08:41:48.660Z,19.21
2022-09-02T08:42:51.797Z,19.21
2022-09-02T08:43:47.925Z,19.24
2022-09-02T08:44:54.428Z,19.30
2022-09-02T08:45:48.021Z,19.39
2022-09-02T08:46:48.109Z,19.49
2022-09-02T08:47:54.282Z,19.55
2022-09-02T08:48:52.828Z,19.64
2022-09-02T08:49:55.903Z,19.70
2022-09-02T08:50:51.508Z,19.75
2022-09-02T08:51:54.218Z,19.79
2022-09-02T08:52:51.884Z,19.83
2022-09-02T08:53:48.109Z,19.87
2022-09-02T08:54:48.705Z,19.85
2022-09-02T08:55:49.560Z,19.86
2022-09-02T08:56:54.077Z,19.87
2022-09-02T08:57:48.141Z,20.00
2022-09-02T08:58:57.381Z,20.23
2022-09-02T09:00:13.565Z,20.44
2022-09-02T09:01:10.861Z,20.57
2022-09-02T09:01:49.828Z,20.72
2022-09-02T09:02:48.076Z,20.83
2022-09-02T09:04:02.606Z,21.00
2022-09-02T09:04:50.931Z,21.00
2022-09-02T09:05:48.271Z,20.98
2022-09-02T09:06:53.574Z,20.91
2022-09-02T09:07:47.728Z,20.82
2022-09-02T09:08:49.537Z,20.72
2022-09-02T09:10:02.348Z,20.66
2022-09-02T09:10:47.364Z,20.63
2022-09-02T09:11:47.335Z,20.64
2022-09-02T09:12:47.124Z,20.75
2022-09-02T09:13:48.728Z,20.91
2022-09-02T09:14:47.973Z,21.00
2022-09-02T09:15:47.046Z,21.03
2022-09-02T09:16:51.340Z,21.09
2022-09-02T09:17:48.566Z,21.06
2022-09-02T09:18:57.688Z,21.03
2022-09-02T09:19:48.378Z,20.97
2022-09-02T09:20:47.525Z,20.97
2022-09-02T09:21:47.325Z,21.00
2022-09-02T09:22:48.194Z,21.00
2022-09-02T09:23:48.863Z,21.01
2022-09-02T09:24:48.971Z,21.05
2022-09-02T09:25:50.812Z,21.12
2022-09-02T09:26:49.143Z,21.21
2022-09-02T09:27:48.252Z,21.33
2022-09-02T09:28:54.822Z,21.38
2022-09-02T09:29:55.937Z,21.33
2022-09-02T09:30:47.843Z,21.31
2022-09-02T09:31:48.735Z,21.31
2022-09-02T09:32:48.103Z,21.34
2022-09-02T09:33:58.759Z,21.34
2022-09-02T09:34:48.895Z,21.37
2022-09-02T09:35:47.927Z,21.34
2022-09-02T09:36:55.470Z,21.36
2022-09-02T09:37:47.322Z,21.38
2022-09-02T09:38:46.852Z,21.42
2022-09-02T09:39:48.885Z,21.48
2022-09-02T09:40:50.327Z,21.51
2022-09-02T09:41:49.266Z,21.49
2022-09-02T09:42:49.989Z,21.48
2022-09-02T09:43:47.631Z,21.51
2022-09-02T09:44:48.334Z,21.49
2022-09-02T09:45:46.975Z,21.49
2022-09-02T09:46:55.840Z,21.51
2022-09-02T09:48:13.067Z,21.55
2022-09-02T09:48:49.103Z,21.61
2022-09-02T09:49:48.833Z,21.73
2022-09-02T09:50:47.402Z,21.90
2022-09-02T09:51:50.248Z,21.96
2022-09-02T09:52:49.063Z,22.01
2022-09-02T09:53:46.769Z,22.02
2022-09-02T09:54:54.866Z,22.01
2022-09-02T09:55:47.168Z,22.02
2022-09-02T09:56:55.127Z,21.98
2022-09-02T09:57:58.769Z,21.94
2022-09-02T10:00:19.808Z,22.15
2022-09-02T10:01:17.226Z,22.12
2022-09-02T10:02:13.827Z,22.09
2022-09-02T10:03:16.348Z,22.11
2022-09-02T10:04:39.430Z,22.17
2022-09-02T10:05:15.910Z,22.21
2022-09-02T10:06:16.188Z,22.23
2022-09-02T10:07:15.241Z,22.20
2022-09-02T10:08:15.523Z,22.17
2022-09-02T10:09:13.235Z,22.15
2022-09-02T10:10:14.643Z,22.15
2022-09-02T10:11:16.005Z,22.15
2022-09-02T10:12:13.161Z,22.19
2022-09-02T10:13:13.143Z,22.21
2022-09-02T10:14:14.761Z,22.27
2022-09-02T10:15:13.858Z,22.31
2022-09-02T10:16:16.856Z,22.41
2022-09-02T10:17:15.956Z,22.52
2022-09-02T10:18:14.676Z,22.64
2022-09-02T10:19:15.579Z,22.72
2022-09-02T10:20:16.474Z,22.81
2022-09-02T10:21:29.549Z,22.84
2022-09-02T10:22:15.474Z,22.86
2022-09-02T10:23:15.533Z,22.89
2022-09-02T10:24:17.280Z,22.91
2022-09-02T10:25:15.052Z,22.91
2022-09-02T10:26:16.929Z,22.93
2022-09-02T10:27:13.427Z,22.94
2022-09-02T10:28:13.024Z,22.96
2022-09-02T10:29:16.308Z,22.96
2022-09-02T10:30:17.395Z,22.88
2022-09-02T10:31:20.440Z,22.79
2022-09-02T10:32:14.747Z,22.79
2022-09-02T10:33:14.877Z,22.78
2022-09-02T10:34:20.990Z,22.74
2022-09-02T10:35:14.585Z,22.74
2022-09-02T10:36:18.932Z,22.76
2022-09-02T10:37:15.019Z,22.74
2022-09-02T10:38:15.961Z,22.72
2022-09-02T10:39:15.711Z,22.63
2022-09-02T10:40:16.140Z,22.69
2022-09-02T10:41:17.017Z,22.74
2022-09-02T10:42:16.490Z,22.79
2022-09-02T10:43:14.541Z,22.82
2022-09-02T10:44:23.075Z,22.82
2022-09-02T10:45:20.211Z,22.82
2022-09-02T10:46:15.734Z,22.84
2022-09-02T10:47:14.898Z,22.82
2022-09-02T10:48:24.575Z,22.81
2022-09-02T10:49:14.083Z,22.82
2022-09-02T10:50:15.638Z,22.85
2022-09-02T10:51:13.646Z,22.86
2022-09-02T10:52:14.868Z,22.82
2022-09-02T10:53:17.230Z,22.79
2022-09-02T10:54:13.822Z,22.76
2022-09-02T10:55:13.080Z,22.74
2022-09-02T10:57:28.895Z,22.69
2022-09-02T10:58:13.528Z,22.64
2022-09-02T10:59:14.943Z,22.59
2022-09-02T11:00:14.087Z,22.57
2022-09-02T11:01:20.146Z,22.54
2022-09-02T11:02:27.325Z,22.52
2022-09-02T11:03:18.370Z,22.59
2022-09-02T11:04:30.019Z,22.63
2022-09-02T11:05:15.324Z,22.67
2022-09-02T11:07:03.450Z,22.72
2022-09-02T11:07:15.867Z,22.78
2022-09-02T11:08:22.337Z,22.81
2022-09-02T11:09:14.168Z,22.84
2022-09-02T11:10:13.004Z,22.89
2022-09-02T11:11:39.731Z,22.91
2022-09-02T11:12:16.125Z,22.88
2022-09-02T11:13:12.898Z,22.89
2022-09-02T11:14:12.374Z,22.97
2022-09-02T11:15:12.423Z,23.03
2022-09-02T11:16:13.948Z,23.06
2022-09-02T11:17:15.971Z,23.06
2022-09-02T11:19:19.482Z,23.07
2022-09-02T11:20:30.944Z,23.12
2022-09-02T11:21:33.409Z,23.16
2022-09-02T11:22:13.753Z,23.19
2022-09-02T11:23:17.398Z,23.22
2022-09-02T11:24:12.911Z,23.31
2022-09-02T11:30:01.985Z,23.59
2022-09-02T11:31:05.555Z,23.59
2022-09-02T11:32:09.098Z,23.59
2022-09-02T11:33:04.782Z,23.59
2022-09-02T11:35:15.731Z,23.64
2022-09-02T11:36:12.387Z,23.77
2022-09-02T11:37:04.022Z,23.84
2022-09-02T11:38:07.038Z,23.86
2022-09-02T11:39:35.946Z,23.87
2022-09-02T11:40:32.831Z,24.00
2022-09-02T11:42:03.763Z,24.16
2022-09-02T11:43:15.989Z,24.19
2022-09-02T11:46:13.250Z,24.19
2022-09-02T11:46:34.126Z,24.18
2022-09-02T11:47:30.095Z,24.14
2022-09-02T11:48:35.414Z,24.16
2022-09-02T11:49:38.452Z,24.19
2022-09-02T11:50:34.698Z,24.23
2022-09-02T11:51:32.753Z,24.23
2022-09-02T11:52:53.782Z,24.23
2022-09-02T11:53:41.651Z,24.19
2022-09-02T11:54:36.226Z,24.12
2022-09-02T11:55:33.718Z,24.00
2022-09-02T11:56:35.044Z,23.86
2022-09-02T11:58:04.286Z,23.81
2022-09-02T11:58:44.241Z,23.81
2022-09-02T11:59:37.570Z,23.75
2022-09-02T12:00:55.477Z,23.75
2022-09-02T12:01:43.893Z,23.74
2022-09-02T12:02:38.995Z,23.69
2022-09-02T12:04:12.030Z,23.67
2022-09-02T12:05:52.932Z,23.59
2022-09-02T12:06:59.182Z,23.56
2022-09-02T12:07:34.046Z,23.53
2022-09-02T12:08:31.721Z,23.50
2022-09-02T12:09:30.169Z,23.49
2022-09-02T12:10:32.262Z,23.49
2022-09-02T12:11:32.553Z,23.50
2022-09-02T12:12:36.051Z,23.50
2022-09-02T12:14:39.080Z,23.50
2022-09-02T12:15:49.743Z,23.47
2022-09-02T12:16:44.545Z,23.50
2022-09-02T12:17:47.990Z,23.49
2022-09-02T12:18:43.231Z,23.50
2022-09-02T12:19:44.211Z,23.49
2022-09-02T12:22:54.411Z,23.44
2022-09-02T12:23:40.228Z,23.45
2022-09-02T12:24:26.635Z,23.54
2022-09-02T12:25:16.962Z,23.77
2022-09-02T12:26:17.512Z,24.00
2022-09-02T12:27:25.714Z,24.16
2022-09-02T12:28:29.315Z,24.23
2022-09-02T12:29:18.433Z,24.21
2022-09-02T12:30:16.109Z,24.15
2022-09-02T12:31:17.292Z,24.18
2022-09-02T12:32:25.611Z,24.23
2022-09-02T12:35:56.398Z,24.33
2022-09-02T12:36:39.478Z,24.41
2022-09-02T12:37:30.150Z,24.49
2022-09-02T12:38:30.616Z,24.48
2022-09-02T12:39:36.762Z,24.42
2022-09-02T12:45:29.128Z,24.27
2022-09-02T12:46:26.980Z,24.23
2022-09-02T12:47:30.717Z,24.12
2022-09-02T12:48:38.570Z,24.08
2022-09-02T12:49:26.162Z,24.06
2022-09-02T12:50:32.111Z,24.04
2022-09-02T12:51:40.371Z,24.00
2022-09-02T12:54:25.711Z,23.89
2022-09-02T12:55:31.082Z,23.89
2022-09-02T12:56:26.541Z,23.89
2022-09-02T12:57:26.331Z,23.87
2022-09-02T12:58:27.486Z,23.90
2022-09-02T12:59:25.746Z,23.93
2022-09-02T13:02:29.692Z,24.06
2022-09-02T13:07:35.726Z,24.09
2022-09-02T13:08:31.494Z,24.05
2022-09-02T13:09:31.864Z,24.00
2022-09-02T13:10:36.874Z,23.99
2022-09-02T13:11:29.624Z,23.96
2022-09-02T13:12:33.387Z,23.97
2022-09-02T13:13:56.780Z,23.92
2022-09-02T13:14:30.439Z,23.86
2022-09-02T13:17:59.611Z,23.84
2022-09-02T13:18:39.720Z,23.81
2022-09-02T13:19:41.959Z,23.82
2022-09-02T13:21:01.429Z,23.82
2022-09-02T13:22:00.957Z,23.86
2022-09-02T13:22:46.582Z,23.87
2022-09-02T13:23:41.944Z,23.89
2022-09-02T13:24:41.655Z,23.89
2022-09-02T13:25:42.430Z,23.92
2022-09-02T13:26:49.250Z,23.93
2022-09-02T13:28:05.218Z,23.94
2022-09-02T13:28:39.669Z,23.97
2022-09-02T13:29:38.775Z,23.96
2022-09-02T13:30:38.349Z,23.96
2022-09-02T13:31:37.528Z,23.94
2022-09-02T13:32:38.090Z,23.94
2022-09-02T13:33:43.113Z,23.94